createdAt,value
2017-04-15T00:00:02.567Z,20.65
2017-04-15T00:01:11.655Z,20.69
2017-04-15T00:02:21.061Z,20.66
2017-04-15T00:03:30.467Z,20.65
2017-04-15T00:04:39.535Z,20.65
2017-04-15T00:05:48.933Z,20.6
2017-04-15T00:06:58.028Z,20.66
2017-04-15T00:08:07.387Z,20.69
2017-04-15T00:09:16.757Z,20.67
2017-04-15T00:10:25.530Z,20.66
2017-04-15T00:11:34.608Z,20.67
2017-04-15T00:12:44.524Z,20.63
2017-04-15T00:13:53.924Z,20.67
2017-04-15T00:15:03.620Z,20.69
2017-04-15T00:16:12.415Z,20.67
2017-04-15T00:17:21.780Z,20.63
2017-04-15T00:18:31.146Z,20.63
2017-04-15T00:19:40.239Z,20.65
2017-04-15T00:20:49.031Z,20.63
2017-04-15T00:21:58.122Z,20.62
2017-04-15T00:23:07.226Z,20.59
2017-04-15T00:24:16.370Z,20.6
2017-04-15T00:25:25.150Z,20.66
2017-04-15T00:26:33.962Z,20.65
2017-04-15T00:27:43.046Z,20.59
2017-04-15T00:28:52.934Z,20.65
2017-04-15T00:30:02.027Z,20.59
2017-04-15T00:31:11.633Z,20.6
2017-04-15T00:32:20.378Z,20.65
2017-04-15T00:33:29.739Z,20.6
2017-04-15T00:34:38.834Z,20.56
2017-04-15T00:35:47.929Z,20.7
2017-04-15T00:36:57.271Z,20.59
2017-04-15T00:38:06.357Z,20.63
2017-04-15T00:39:15.766Z,20.59
2017-04-15T00:40:24.855Z,20.63
2017-04-15T00:41:33.946Z,20.59
2017-04-15T00:42:43.657Z,20.6
2017-04-15T00:43:53.159Z,20.6
2017-04-15T00:45:02.874Z,20.58
2017-04-15T00:46:11.661Z,20.62
2017-04-15T00:47:21.058Z,20.67
2017-04-15T00:48:30.761Z,20.67
2017-04-15T00:49:39.535Z,20.59
2017-04-15T00:50:48.346Z,20.58
2017-04-15T00:51:57.154Z,20.69
2017-04-15T00:53:05.931Z,20.6
2017-04-15T00:54:14.706Z,20.69
2017-04-15T00:55:23.794Z,20.6
2017-04-15T00:56:32.875Z,20.6
2017-04-15T00:57:41.656Z,20.58
2017-04-15T00:58:50.435Z,20.59
2017-04-15T00:59:59.597Z,20.62
2017-04-15T01:01:08.694Z,20.6
2017-04-15T01:02:17.899Z,20.6
2017-04-15T01:03:26.985Z,20.58
2017-04-15T01:04:36.069Z,20.59
2017-04-15T01:05:44.963Z,20.52
2017-04-15T01:06:53.707Z,20.5
2017-04-15T01:08:03.074Z,20.51
2017-04-15T01:09:12.466Z,20.58
2017-04-15T01:10:21.260Z,20.63
2017-04-15T01:11:30.659Z,20.51
2017-04-15T01:12:39.748Z,20.65
2017-04-15T01:13:49.406Z,20.48
2017-04-15T01:14:58.474Z,20.56
2017-04-15T01:16:07.210Z,20.58
2017-04-15T01:17:16.543Z,20.59
2017-04-15T01:18:26.164Z,20.55
2017-04-15T01:19:35.260Z,20.51
2017-04-15T01:20:44.653Z,20.6
2017-04-15T01:21:53.729Z,20.56
2017-04-15T01:23:03.438Z,20.6
2017-04-15T01:24:12.701Z,20.58
2017-04-15T01:25:21.775Z,20.58
2017-04-15T01:26:31.472Z,20.59
2017-04-15T01:27:40.565Z,20.55
2017-04-15T01:28:49.658Z,20.58
2017-04-15T01:29:58.736Z,20.63
2017-04-15T01:31:07.784Z,20.6
2017-04-15T01:32:16.835Z,20.6
2017-04-15T01:33:25.936Z,20.6
2017-04-15T01:34:35.628Z,20.51
2017-04-15T01:35:44.608Z,20.58
2017-04-15T01:36:53.846Z,20.59
2017-04-15T01:38:02.937Z,20.63
2017-04-15T01:39:11.987Z,20.65
2017-04-15T01:40:20.705Z,20.59
2017-04-15T01:41:29.755Z,20.62
2017-04-15T01:42:38.803Z,20.62
2017-04-15T01:43:47.552Z,20.6
2017-04-15T01:44:56.637Z,20.6
2017-04-15T01:46:06.053Z,20.62
2017-04-15T01:47:15.439Z,20.6
2017-04-15T01:48:25.153Z,20.63
2017-04-15T01:49:34.549Z,20.6
2017-04-15T01:50:43.913Z,20.62
2017-04-15T01:51:52.700Z,20.59
2017-04-15T01:53:02.102Z,20.48
2017-04-15T01:54:11.163Z,20.62
2017-04-15T01:55:20.859Z,20.58
2017-04-15T01:56:29.635Z,20.48
2017-04-15T01:57:38.731Z,20.5
2017-04-15T01:58:48.095Z,20.56
2017-04-15T01:59:56.879Z,20.58
2017-04-15T02:01:06.548Z,20.56
2017-04-15T02:02:15.270Z,20.52
2017-04-15T02:03:24.031Z,20.47
2017-04-15T02:04:33.414Z,20.47
2017-04-15T02:05:42.811Z,20.48
2017-04-15T02:06:51.893Z,20.47
2017-04-15T02:08:01.244Z,20.43
2017-04-15T02:09:10.313Z,20.48
2017-04-15T02:10:19.710Z,20.41
2017-04-15T02:11:28.459Z,20.44
2017-04-15T02:12:37.523Z,20.5
2017-04-15T02:13:47.483Z,20.41
2017-04-15T02:14:56.546Z,20.47
2017-04-15T02:16:05.633Z,20.47
2017-04-15T02:17:14.713Z,20.48
2017-04-15T02:18:23.788Z,20.48
2017-04-15T02:19:33.160Z,20.41
2017-04-15T02:20:42.252Z,20.48
2017-04-15T02:21:51.033Z,20.5
2017-04-15T02:23:00.740Z,20.5
2017-04-15T02:24:10.133Z,20.51
2017-04-15T02:25:19.213Z,20.44
2017-04-15T02:26:28.352Z,20.44
2017-04-15T02:27:37.716Z,20.4
2017-04-15T02:28:47.645Z,20.44
2017-04-15T02:29:57.346Z,20.43
2017-04-15T02:31:06.702Z,20.48
2017-04-15T02:32:16.071Z,20.51
2017-04-15T02:33:24.860Z,20.43
2017-04-15T02:34:33.938Z,20.43
2017-04-15T02:35:42.692Z,20.37
2017-04-15T02:36:51.746Z,20.5
2017-04-15T02:38:01.085Z,20.48
2017-04-15T02:39:10.156Z,20.5
2017-04-15T02:40:19.245Z,20.52
2017-04-15T02:41:28.328Z,20.41
2017-04-15T02:42:37.419Z,20.51
2017-04-15T02:43:47.114Z,20.48
2017-04-15T02:44:56.604Z,20.44
2017-04-15T02:46:05.965Z,20.47
2017-04-15T02:47:15.304Z,20.41
2017-04-15T02:48:24.374Z,20.41
2017-04-15T02:49:33.770Z,20.43
2017-04-15T02:50:42.810Z,20.41
2017-04-15T02:51:52.171Z,20.41
2017-04-15T02:53:00.931Z,20.4
2017-04-15T02:54:10.027Z,20.44
2017-04-15T02:55:25.688Z,20.4
2017-04-15T02:56:34.453Z,20.44
2017-04-15T02:57:43.844Z,20.4
2017-04-15T02:58:53.226Z,20.36
2017-04-15T03:00:02.621Z,20.34
2017-04-15T03:01:11.709Z,20.43
2017-04-15T03:02:20.792Z,20.26
2017-04-15T03:03:30.167Z,20.29
2017-04-15T03:04:39.872Z,20.29
2017-04-15T03:05:48.655Z,20.32
2017-04-15T03:06:57.426Z,20.34
2017-04-15T03:08:06.808Z,20.37
2017-04-15T03:09:15.889Z,20.4
2017-04-15T03:10:25.270Z,20.31
2017-04-15T03:11:34.036Z,20.39
2017-04-15T03:12:43.422Z,20.37
2017-04-15T03:13:52.239Z,20.29
2017-04-15T03:15:01.141Z,20.34
2017-04-15T03:16:10.374Z,20.29
2017-04-15T03:17:19.512Z,20.32
2017-04-15T03:18:28.251Z,20.37
2017-04-15T03:19:37.946Z,20.31
2017-04-15T03:20:46.717Z,20.22
2017-04-15T03:21:55.484Z,20.31
2017-04-15T03:23:04.271Z,20.22
2017-04-15T03:24:13.652Z,20.22
2017-04-15T03:25:22.427Z,20.28
2017-04-15T03:26:31.195Z,20.28
2017-04-15T03:27:40.582Z,20.29
2017-04-15T03:28:50.223Z,20.28
2017-04-15T03:29:59.233Z,20.32
2017-04-15T03:31:08.542Z,20.31
2017-04-15T03:32:17.584Z,20.28
2017-04-15T03:33:26.351Z,20.29
2017-04-15T03:34:35.130Z,20.24
2017-04-15T03:35:44.202Z,20.31
2017-04-15T03:36:52.927Z,20.29
2017-04-15T03:38:02.243Z,20.29
2017-04-15T03:39:11.003Z,20.31
2017-04-15T03:40:20.085Z,20.28
2017-04-15T03:41:29.163Z,20.25
2017-04-15T03:42:37.945Z,20.22
2017-04-15T03:43:46.722Z,20.32
2017-04-15T03:44:55.792Z,20.24
2017-04-15T03:46:05.178Z,20.31
2017-04-15T03:47:13.946Z,20.24
2017-04-15T03:48:22.686Z,20.25
2017-04-15T03:49:31.733Z,20.29
2017-04-15T03:50:40.502Z,20.28
2017-04-15T03:51:49.582Z,20.28
2017-04-15T03:52:58.642Z,20.24
2017-04-15T03:54:07.688Z,20.34
2017-04-15T03:55:16.458Z,20.34
2017-04-15T03:56:25.531Z,20.31
2017-04-15T03:57:34.302Z,20.36
2017-04-15T03:58:44.256Z,20.32
2017-04-15T03:59:54.124Z,20.32
2017-04-15T04:01:02.861Z,20.29
2017-04-15T04:02:11.902Z,20.32
2017-04-15T04:03:21.291Z,20.32
2017-04-15T04:04:30.068Z,20.39
2017-04-15T04:05:39.148Z,20.36
2017-04-15T04:06:48.160Z,20.34
2017-04-15T04:07:57.716Z,20.4
2017-04-15T04:09:06.753Z,20.29
2017-04-15T04:10:16.279Z,20.34
2017-04-15T04:11:25.229Z,20.31
2017-04-15T04:12:34.086Z,20.34
2017-04-15T04:13:43.585Z,20.4
2017-04-15T04:14:53.440Z,20.29
2017-04-15T04:16:02.440Z,20.32
2017-04-15T04:17:11.221Z,20.36
2017-04-15T04:18:20.355Z,20.32
2017-04-15T04:19:29.754Z,20.43
2017-04-15T04:20:38.530Z,20.44
2017-04-15T04:21:47.605Z,20.4
2017-04-15T04:22:56.677Z,20.47
2017-04-15T04:24:06.329Z,20.44
2017-04-15T04:25:15.389Z,20.41
2017-04-15T04:26:24.162Z,20.43
2017-04-15T04:27:33.127Z,20.47
2017-04-15T04:28:42.809Z,20.48
2017-04-15T04:29:52.197Z,20.47
2017-04-15T04:31:01.232Z,20.47
2017-04-15T04:32:10.911Z,20.47
2017-04-15T04:33:19.982Z,20.48
2017-04-15T04:34:29.063Z,20.47
2017-04-15T04:35:38.160Z,20.59
2017-04-15T04:36:46.923Z,20.48
2017-04-15T04:37:56.002Z,20.52
2017-04-15T04:39:05.396Z,20.43
2017-04-15T04:40:14.479Z,20.59
2017-04-15T04:41:23.575Z,20.6
2017-04-15T04:42:32.340Z,20.59
2017-04-15T04:43:42.015Z,20.65
2017-04-15T04:44:51.964Z,20.65
2017-04-15T04:46:01.006Z,20.55
2017-04-15T04:47:09.788Z,20.55
2017-04-15T04:48:19.181Z,20.52
2017-04-15T04:49:28.270Z,20.51
2017-04-15T04:50:37.337Z,20.51
2017-04-15T04:51:46.112Z,20.59
2017-04-15T04:52:54.905Z,20.59
2017-04-15T04:54:03.986Z,20.59
2017-04-15T04:55:12.715Z,20.58
2017-04-15T04:56:21.761Z,20.62
2017-04-15T04:57:31.139Z,20.63
2017-04-15T04:58:40.536Z,20.59
2017-04-15T04:59:50.722Z,20.66
2017-04-15T05:01:00.078Z,20.67
2017-04-15T05:02:08.849Z,20.67
2017-04-15T05:03:17.929Z,20.65
2017-04-15T05:04:27.838Z,20.7
2017-04-15T05:05:37.636Z,20.67
2017-04-15T05:06:46.923Z,20.65
2017-04-15T05:07:56.133Z,20.65
2017-04-15T05:09:06.083Z,20.7
2017-04-15T05:10:15.657Z,20.69
2017-04-15T05:11:24.425Z,20.65
2017-04-15T05:12:33.197Z,20.69
2017-04-15T05:13:42.890Z,20.65
2017-04-15T05:14:51.633Z,20.74
2017-04-15T05:16:00.801Z,20.69
2017-04-15T05:17:09.545Z,20.66
2017-04-15T05:18:18.613Z,20.72
2017-04-15T05:19:27.705Z,20.7
2017-04-15T05:20:37.700Z,20.75
2017-04-15T05:21:47.074Z,20.78
2017-04-15T05:22:56.419Z,20.72
2017-04-15T05:24:06.116Z,20.72
2017-04-15T05:25:15.186Z,20.77
2017-04-15T05:26:23.976Z,20.77
2017-04-15T05:27:33.011Z,20.81
2017-04-15T05:28:42.371Z,20.82
2017-04-15T05:29:51.748Z,20.8
2017-04-15T05:31:01.342Z,20.77
2017-04-15T05:32:10.382Z,20.8
2017-04-15T05:33:19.459Z,20.8
2017-04-15T05:34:28.847Z,20.82
2017-04-15T05:35:37.923Z,20.84
2017-04-15T05:36:46.688Z,20.82
2017-04-15T05:37:55.726Z,20.77
2017-04-15T05:39:04.787Z,20.82
2017-04-15T05:40:13.870Z,20.78
2017-04-15T05:41:22.938Z,20.82
2017-04-15T05:42:32.823Z,20.84
2017-04-15T05:43:42.515Z,20.84
2017-04-15T05:44:51.901Z,20.88
2017-04-15T05:46:01.181Z,20.85
2017-04-15T05:47:09.939Z,20.84
2017-04-15T05:48:18.992Z,20.81
2017-04-15T05:49:28.340Z,20.85
2017-04-15T05:50:37.120Z,20.87
2017-04-15T05:51:45.885Z,20.93
2017-04-15T05:52:55.271Z,20.88
2017-04-15T05:54:04.344Z,20.92
2017-04-15T05:55:13.424Z,20.95
2017-04-15T05:56:22.508Z,20.95
2017-04-15T05:57:31.890Z,20.95
2017-04-15T05:58:41.530Z,20.88
2017-04-15T05:59:50.579Z,20.92
2017-04-15T06:00:59.354Z,20.93
2017-04-15T06:02:08.430Z,20.95
2017-04-15T06:03:17.817Z,20.95
2017-04-15T06:04:27.210Z,20.9
2017-04-15T06:05:36.597Z,20.9
2017-04-15T06:06:45.939Z,20.9
2017-04-15T06:07:54.992Z,20.96
2017-04-15T06:09:04.230Z,20.93
2017-04-15T06:10:13.602Z,20.92
2017-04-15T06:11:22.690Z,20.93
2017-04-15T06:12:31.756Z,20.93
2017-04-15T06:13:40.835Z,20.92
2017-04-15T06:14:50.215Z,20.92
2017-04-15T06:15:59.252Z,20.92
2017-04-15T06:17:08.297Z,20.9
2017-04-15T06:18:17.368Z,20.99
2017-04-15T06:19:27.330Z,21.03
2017-04-15T06:20:36.085Z,20.93
2017-04-15T06:21:45.161Z,20.93
2017-04-15T06:22:54.545Z,20.88
2017-04-15T06:24:03.622Z,20.88
2017-04-15T06:25:13.017Z,21
2017-04-15T06:26:21.798Z,20.95
2017-04-15T06:27:30.865Z,20.99
2017-04-15T06:28:40.552Z,20.99
2017-04-15T06:29:49.923Z,21.02
2017-04-15T06:30:58.999Z,20.93
2017-04-15T06:32:08.097Z,21
2017-04-15T06:33:17.488Z,20.97
2017-04-15T06:34:26.876Z,20.99
2017-04-15T06:35:35.953Z,20.97
2017-04-15T06:36:44.715Z,21
2017-04-15T06:37:54.100Z,20.99
2017-04-15T06:39:03.182Z,21
2017-04-15T06:40:12.253Z,20.97
2017-04-15T06:41:21.326Z,20.99
2017-04-15T06:42:30.109Z,20.99
2017-04-15T06:43:39.186Z,21.02
2017-04-15T06:44:48.257Z,21.03
2017-04-15T06:45:57.640Z,21.07
2017-04-15T06:47:06.733Z,21.07
2017-04-15T06:48:15.803Z,21.06
2017-04-15T06:49:25.689Z,21.09
2017-04-15T06:50:34.459Z,21.03
2017-04-15T06:51:43.225Z,21.12
2017-04-15T06:52:52.613Z,21.05
2017-04-15T06:54:01.693Z,21.03
2017-04-15T06:55:10.770Z,20.93
2017-04-15T06:56:20.159Z,21.06
2017-04-15T06:57:29.552Z,21.07
2017-04-15T06:58:38.643Z,21.03
2017-04-15T06:59:47.722Z,21.06
2017-04-15T07:00:57.008Z,21.02
2017-04-15T07:02:05.864Z,21.07
2017-04-15T07:03:15.227Z,21.03
2017-04-15T07:04:24.617Z,21.07
2017-04-15T07:05:33.997Z,21.09
2017-04-15T07:06:42.765Z,21.05
2017-04-15T07:07:52.048Z,21.05
2017-04-15T07:09:01.540Z,21.07
2017-04-15T07:10:10.411Z,21.09
2017-04-15T07:11:19.609Z,21.09
2017-04-15T07:12:29.318Z,21.03
2017-04-15T07:13:38.391Z,21.11
2017-04-15T07:14:47.535Z,21.03
2017-04-15T07:15:56.669Z,21.12
2017-04-15T07:17:05.727Z,21.09
2017-04-15T07:18:14.806Z,21.06
2017-04-15T07:19:24.385Z,21.03
2017-04-15T07:20:33.297Z,21.15
2017-04-15T07:21:42.684Z,21.15
2017-04-15T07:22:52.084Z,21.02
2017-04-15T07:24:01.244Z,21.14
2017-04-15T07:25:10.607Z,21.17
2017-04-15T07:26:19.979Z,21.09
2017-04-15T07:27:28.752Z,21.11
2017-04-15T07:28:37.523Z,21.14
2017-04-15T07:29:47.215Z,21.09
2017-04-15T07:30:56.297Z,21.12
2017-04-15T07:32:05.683Z,21.14
2017-04-15T07:33:15.079Z,21.07
2017-04-15T07:34:24.128Z,21.12
2017-04-15T07:35:32.871Z,21.17
2017-04-15T07:36:41.645Z,21.21
2017-04-15T07:37:51.027Z,21.18
2017-04-15T07:39:00.127Z,21.12
2017-04-15T07:40:09.216Z,21.15
2017-04-15T07:41:18.558Z,21.18
2017-04-15T07:42:27.307Z,21.24
2017-04-15T07:43:36.393Z,21.17
2017-04-15T07:44:46.087Z,21.17
2017-04-15T07:45:54.870Z,21.17
2017-04-15T07:47:03.633Z,21.17
2017-04-15T07:48:12.412Z,21.21
2017-04-15T07:49:22.405Z,21.15
2017-04-15T07:50:31.790Z,21.27
2017-04-15T07:51:41.068Z,21.2
2017-04-15T07:52:50.146Z,21.21
2017-04-15T07:53:59.843Z,21.24
2017-04-15T07:55:08.933Z,21.22
2017-04-15T07:56:18.013Z,21.22
2017-04-15T07:57:26.769Z,21.22
2017-04-15T07:58:35.545Z,21.22
2017-04-15T07:59:44.599Z,21.22
2017-04-15T08:00:53.636Z,21.21
2017-04-15T08:02:02.684Z,21.2
2017-04-15T08:03:11.758Z,21.22
2017-04-15T08:04:21.148Z,21.22
2017-04-15T08:05:30.227Z,21.21
2017-04-15T08:06:39.264Z,21.24
2017-04-15T08:07:48.013Z,21.22
2017-04-15T08:08:58.012Z,21.3
2017-04-15T08:10:07.098Z,21.25
2017-04-15T08:11:16.181Z,21.24
2017-04-15T08:12:24.954Z,21.22
2017-04-15T08:13:33.730Z,21.22
2017-04-15T08:14:43.122Z,21.24
2017-04-15T08:15:52.210Z,21.25
2017-04-15T08:17:01.549Z,21.21
2017-04-15T08:18:10.595Z,21.24
2017-04-15T08:19:19.542Z,21.21
2017-04-15T08:20:28.906Z,21.2
2017-04-15T08:21:37.689Z,21.24
2017-04-15T08:22:46.723Z,21.25
2017-04-15T08:23:56.068Z,21.25
2017-04-15T08:25:04.849Z,21.2
2017-04-15T08:26:13.941Z,21.22
2017-04-15T08:27:22.697Z,21.24
2017-04-15T08:28:31.782Z,21.25
2017-04-15T08:29:41.770Z,21.24
2017-04-15T08:30:50.848Z,21.21
2017-04-15T08:31:59.919Z,21.2
2017-04-15T08:33:08.701Z,21.2
2017-04-15T08:34:17.783Z,21.22
2017-04-15T08:35:26.888Z,21.17
2017-04-15T08:36:35.658Z,21.22
2017-04-15T08:37:44.739Z,21.17
2017-04-15T08:38:54.130Z,21.2
2017-04-15T08:40:03.247Z,21.18
2017-04-15T08:41:12.012Z,21.2
2017-04-15T08:42:20.784Z,21.21
2017-04-15T08:43:29.876Z,21.17
2017-04-15T08:44:38.961Z,21.18
2017-04-15T08:45:47.922Z,21.17
2017-04-15T08:46:57.608Z,21.2
2017-04-15T08:48:06.656Z,21.2
2017-04-15T08:49:16.149Z,21.18
2017-04-15T08:50:25.135Z,21.18
2017-04-15T08:51:34.016Z,21.17
2017-04-15T08:52:43.453Z,21.22
2017-04-15T08:53:52.552Z,21.21
2017-04-15T08:55:01.373Z,21.21
2017-04-15T08:56:10.997Z,21.21
2017-04-15T08:57:19.778Z,21.2
2017-04-15T08:58:28.560Z,21.22
2017-04-15T08:59:37.344Z,21.27
2017-04-15T09:00:46.741Z,21.21
2017-04-15T09:01:56.632Z,21.18
2017-04-15T09:03:05.966Z,21.17
2017-04-15T09:04:14.719Z,21.21
2017-04-15T09:05:23.806Z,21.2
2017-04-15T09:06:32.575Z,21.17
2017-04-15T09:07:41.348Z,21.2
2017-04-15T09:08:50.743Z,21.21
2017-04-15T09:09:59.822Z,21.22
2017-04-15T09:11:08.911Z,21.22
2017-04-15T09:12:18.295Z,21.21
2017-04-15T09:13:27.670Z,21.2
2017-04-15T09:14:36.447Z,21.21
2017-04-15T09:15:45.831Z,21.24
2017-04-15T09:16:54.606Z,21.17
2017-04-15T09:18:03.849Z,21.2
2017-04-15T09:19:12.619Z,21.2
2017-04-15T09:20:21.659Z,21.21
2017-04-15T09:21:30.708Z,21.25
2017-04-15T09:22:39.769Z,21.17
2017-04-15T09:23:49.146Z,21.2
2017-04-15T09:24:59.140Z,21.18
2017-04-15T09:26:08.817Z,21.15
2017-04-15T09:27:18.976Z,21.21
2017-04-15T09:28:28.665Z,21.2
2017-04-15T09:29:37.730Z,21.2
2017-04-15T09:30:46.794Z,21.25
2017-04-15T09:31:55.537Z,21.2
2017-04-15T09:33:04.929Z,21.21
2017-04-15T09:34:14.015Z,21.15
2017-04-15T09:35:24.013Z,21.22
2017-04-15T09:36:33.084Z,21.25
2017-04-15T09:37:42.127Z,21.21
2017-04-15T09:38:51.441Z,21.22
2017-04-15T09:40:00.502Z,21.21
2017-04-15T09:41:09.283Z,21.22
2017-04-15T09:42:18.373Z,21.22
2017-04-15T09:43:27.454Z,21.15
2017-04-15T09:44:36.842Z,21.2
2017-04-15T09:45:45.924Z,21.2
2017-04-15T09:46:54.728Z,21.22
2017-04-15T09:48:04.465Z,21.22
2017-04-15T09:49:13.849Z,21.22
2017-04-15T09:50:22.944Z,21.24
2017-04-15T09:51:31.728Z,21.2
2017-04-15T09:52:40.809Z,21.22
2017-04-15T09:53:50.410Z,21.2
2017-04-15T09:54:59.388Z,21.24
2017-04-15T09:56:08.466Z,21.21
2017-04-15T09:57:17.539Z,21.21
2017-04-15T09:58:27.223Z,21.2
2017-04-15T09:59:36.617Z,21.24
2017-04-15T10:00:45.663Z,21.22
2017-04-15T10:01:55.044Z,21.24
2017-04-15T10:03:04.384Z,21.21
2017-04-15T10:04:13.431Z,21.2
2017-04-15T10:05:22.879Z,21.21
2017-04-15T10:06:32.344Z,21.21
2017-04-15T10:07:41.424Z,21.25
2017-04-15T10:08:50.493Z,21.3
2017-04-15T10:10:00.429Z,21.21
2017-04-15T10:11:09.518Z,21.21
2017-04-15T10:12:18.593Z,21.22
2017-04-15T10:13:27.632Z,21.2
2017-04-15T10:14:36.351Z,21.21
2017-04-15T10:15:45.097Z,21.25
2017-04-15T10:16:53.835Z,21.27
2017-04-15T10:18:02.881Z,21.21
2017-04-15T10:19:12.882Z,21.24
2017-04-15T10:20:21.634Z,21.27
2017-04-15T10:21:30.416Z,21.37
2017-04-15T10:22:39.753Z,21.37
2017-04-15T10:23:48.805Z,21.35
2017-04-15T10:24:57.888Z,21.43
2017-04-15T10:26:06.660Z,21.45
2017-04-15T10:27:15.736Z,21.43
2017-04-15T10:28:24.821Z,21.4
2017-04-15T10:29:33.589Z,21.43
2017-04-15T10:30:42.365Z,21.4
2017-04-15T10:31:51.440Z,21.43
2017-04-15T10:33:00.511Z,21.48
2017-04-15T10:34:09.246Z,21.5
2017-04-15T10:35:18.299Z,21.42
2017-04-15T10:36:27.395Z,21.42
2017-04-15T10:37:36.134Z,21.42
2017-04-15T10:38:45.189Z,21.39
2017-04-15T10:39:54.570Z,21.37
2017-04-15T10:41:03.935Z,21.36
2017-04-15T10:42:13.284Z,21.43
2017-04-15T10:43:22.658Z,21.39
2017-04-15T10:44:32.350Z,21.45
2017-04-15T10:45:42.364Z,21.4
2017-04-15T10:46:51.397Z,21.37
2017-04-15T10:48:00.150Z,21.4
2017-04-15T10:49:09.495Z,21.45
2017-04-15T10:50:18.533Z,21.36
2017-04-15T10:51:27.273Z,21.37
2017-04-15T10:52:36.663Z,21.33
2017-04-15T10:53:46.040Z,21.4
2017-04-15T10:54:55.420Z,21.4
2017-04-15T10:56:04.452Z,21.46
2017-04-15T10:57:13.203Z,21.39
2017-04-15T10:58:22.285Z,21.37
2017-04-15T10:59:31.937Z,21.39
2017-04-15T11:00:40.689Z,21.42
2017-04-15T11:01:49.724Z,21.4
2017-04-15T11:02:58.470Z,21.46
2017-04-15T11:04:07.241Z,21.43
2017-04-15T11:05:16.322Z,21.4
2017-04-15T11:06:25.119Z,21.4
2017-04-15T11:07:34.677Z,21.39
2017-04-15T11:08:43.698Z,21.42
2017-04-15T11:09:53.054Z,21.43
2017-04-15T11:11:02.098Z,21.43
2017-04-15T11:12:10.853Z,21.4
2017-04-15T11:13:19.934Z,21.46
2017-04-15T11:14:28.711Z,21.45
2017-04-15T11:15:37.477Z,21.42
2017-04-15T11:16:46.555Z,21.43
2017-04-15T11:17:55.644Z,21.45
2017-04-15T11:19:04.719Z,21.54
2017-04-15T11:20:13.813Z,21.46
2017-04-15T11:21:22.897Z,21.52
2017-04-15T11:22:31.670Z,21.5
2017-04-15T11:23:40.755Z,21.52
2017-04-15T11:24:49.840Z,21.55
2017-04-15T11:25:58.924Z,21.4
2017-04-15T11:27:08.318Z,21.51
2017-04-15T11:28:17.073Z,21.51
2017-04-15T11:29:26.471Z,21.54
2017-04-15T11:30:35.550Z,21.5
2017-04-15T11:31:44.287Z,21.48
2017-04-15T11:32:53.607Z,21.45
2017-04-15T11:34:02.958Z,21.54
2017-04-15T11:35:11.833Z,21.52
2017-04-15T11:36:20.899Z,21.51
2017-04-15T11:37:30.180Z,21.54
2017-04-15T11:38:39.658Z,21.54
2017-04-15T11:39:49.004Z,21.55
2017-04-15T11:40:58.018Z,21.52
2017-04-15T11:42:06.861Z,21.54
2017-04-15T11:43:16.397Z,21.51
2017-04-15T11:44:25.877Z,21.55
2017-04-15T11:45:35.278Z,21.57
2017-04-15T11:46:44.350Z,21.6
2017-04-15T11:47:53.124Z,21.66
2017-04-15T11:49:02.809Z,21.67
2017-04-15T11:50:11.893Z,21.64
2017-04-15T11:51:21.286Z,21.72
2017-04-15T11:52:30.365Z,21.72
2017-04-15T11:53:39.915Z,21.69
2017-04-15T11:54:48.970Z,21.75
2017-04-15T11:55:58.009Z,21.79
2017-04-15T11:57:07.219Z,21.79
2017-04-15T11:58:16.272Z,21.76
2017-04-15T11:59:25.666Z,21.85
2017-04-15T12:00:35.064Z,21.91
2017-04-15T12:01:43.835Z,21.92
2017-04-15T12:02:53.118Z,21.91
2017-04-15T12:04:02.496Z,21.96
2017-04-15T12:05:11.576Z,21.96
2017-04-15T12:06:21.539Z,21.99
2017-04-15T12:07:30.595Z,22.02
2017-04-15T12:08:39.334Z,22.13
2017-04-15T12:09:48.082Z,22.1
2017-04-15T12:10:57.466Z,22.13
2017-04-15T12:12:06.547Z,22.2
2017-04-15T12:13:15.489Z,22.17
2017-04-15T12:14:24.537Z,22.25
2017-04-15T12:15:33.615Z,22.17
2017-04-15T12:16:42.390Z,22.2
2017-04-15T12:17:51.779Z,22.15
2017-04-15T12:19:00.865Z,22.29
2017-04-15T12:20:09.648Z,22.29
2017-04-15T12:21:18.737Z,22.25
2017-04-15T12:22:28.124Z,22.36
2017-04-15T12:23:37.371Z,22.28
2017-04-15T12:24:47.033Z,22.41
2017-04-15T12:25:56.106Z,22.38
2017-04-15T12:27:05.170Z,22.41
2017-04-15T12:28:14.563Z,22.28
2017-04-15T12:29:23.652Z,22.28
2017-04-15T12:30:33.054Z,22.33
2017-04-15T12:31:41.823Z,22.32
2017-04-15T12:32:51.494Z,22.33
2017-04-15T12:34:00.812Z,22.2
2017-04-15T12:35:10.082Z,22.3
2017-04-15T12:36:18.855Z,22.26
2017-04-15T12:37:27.890Z,22.28
2017-04-15T12:38:36.903Z,22.14
2017-04-15T12:39:45.964Z,22.2
2017-04-15T12:40:55.044Z,22.17
2017-04-15T12:42:03.783Z,22.18
2017-04-15T12:43:12.802Z,22.13
2017-04-15T12:44:22.459Z,22.17
2017-04-15T12:45:31.533Z,22.04
2017-04-15T12:46:41.241Z,22.1
2017-04-15T12:47:49.975Z,22.02
2017-04-15T12:48:59.034Z,21.99
2017-04-15T12:50:08.265Z,22.06
2017-04-15T12:51:17.025Z,21.93
2017-04-15T12:52:26.072Z,21.92
2017-04-15T12:53:35.119Z,21.83
2017-04-15T12:54:44.508Z,21.93
2017-04-15T12:55:53.549Z,21.91
2017-04-15T12:57:02.606Z,21.92
2017-04-15T12:58:12.437Z,21.91
2017-04-15T12:59:21.538Z,21.8
2017-04-15T13:00:30.771Z,21.88
2017-04-15T13:01:40.157Z,21.83
2017-04-15T13:02:49.593Z,21.79
2017-04-15T13:03:58.330Z,21.82
2017-04-15T13:05:08.162Z,21.79
2017-04-15T13:06:17.591Z,21.82
2017-04-15T13:07:26.361Z,21.8
2017-04-15T13:08:35.611Z,21.75
2017-04-15T13:09:44.385Z,21.72
2017-04-15T13:10:53.732Z,21.75
2017-04-15T13:12:02.784Z,21.73
2017-04-15T13:13:11.873Z,21.66
2017-04-15T13:14:21.276Z,21.69
2017-04-15T13:15:30.324Z,21.72
2017-04-15T13:16:39.038Z,21.8
2017-04-15T13:17:48.724Z,21.72
2017-04-15T13:18:57.817Z,21.69
2017-04-15T13:20:06.888Z,21.7
2017-04-15T13:21:16.572Z,21.77
2017-04-15T13:22:25.653Z,21.66
2017-04-15T13:23:34.739Z,21.75
2017-04-15T13:24:43.835Z,21.72
2017-04-15T13:25:53.189Z,21.67
2017-04-15T13:27:02.280Z,21.77
2017-04-15T13:28:11.068Z,21.72
2017-04-15T13:29:20.465Z,21.72
2017-04-15T13:30:29.850Z,21.77
2017-04-15T13:31:39.239Z,21.83
2017-04-15T13:32:48.621Z,21.85
2017-04-15T13:33:58.339Z,21.82
2017-04-15T13:35:08.028Z,21.88
2017-04-15T13:36:17.413Z,21.83
2017-04-15T13:37:26.189Z,21.8
2017-04-15T13:38:35.273Z,21.79
2017-04-15T13:39:44.358Z,21.79
2017-04-15T13:40:53.741Z,21.85
2017-04-15T13:42:02.477Z,21.8
2017-04-15T13:43:11.523Z,21.77
2017-04-15T13:44:20.923Z,21.79
2017-04-15T13:45:30.006Z,21.79
2017-04-15T13:46:39.702Z,21.88
2017-04-15T13:47:49.346Z,21.88
2017-04-15T13:48:58.711Z,21.83
2017-04-15T13:50:07.802Z,21.82
2017-04-15T13:51:16.573Z,21.79
2017-04-15T13:52:25.660Z,21.83
2017-04-15T13:53:34.591Z,21.77
2017-04-15T13:54:43.344Z,21.69
2017-04-15T13:55:52.418Z,21.79
2017-04-15T13:57:01.493Z,21.8
2017-04-15T13:58:10.585Z,21.88
2017-04-15T13:59:19.969Z,21.8
2017-04-15T14:00:28.790Z,21.93
2017-04-15T14:01:37.565Z,21.85
2017-04-15T14:02:46.649Z,21.88
2017-04-15T14:03:56.345Z,21.91
2017-04-15T14:05:05.635Z,21.95
2017-04-15T14:06:14.709Z,22
2017-04-15T14:07:23.782Z,22.02
2017-04-15T14:08:32.865Z,22.07
2017-04-15T14:09:42.259Z,22.08
2017-04-15T14:10:51.343Z,22.15
2017-04-15T14:12:00.722Z,22.08
2017-04-15T14:13:09.505Z,22.2
2017-04-15T14:14:18.655Z,22.14
2017-04-15T14:15:27.661Z,22.14
2017-04-15T14:16:36.738Z,22.17
2017-04-15T14:17:45.799Z,22.17
2017-04-15T14:18:55.758Z,22.23
2017-04-15T14:20:04.769Z,22.2
2017-04-15T14:21:13.730Z,22.08
2017-04-15T14:22:22.802Z,22.17
2017-04-15T14:23:31.591Z,22.07
2017-04-15T14:24:40.684Z,22.07
2017-04-15T14:25:49.456Z,22.07
2017-04-15T14:26:58.534Z,22
2017-04-15T14:28:07.919Z,21.98
2017-04-15T14:29:17.304Z,22.06
2017-04-15T14:30:26.676Z,22
2017-04-15T14:31:35.654Z,21.99
2017-04-15T14:32:44.425Z,21.95
2017-04-15T14:33:53.510Z,21.95
2017-04-15T14:35:03.808Z,21.92
2017-04-15T14:36:12.583Z,21.88
2017-04-15T14:37:21.359Z,21.88
2017-04-15T14:38:30.122Z,21.92
2017-04-15T14:39:38.898Z,21.89
2017-04-15T14:40:47.671Z,21.89
2017-04-15T14:41:56.438Z,21.91
2017-04-15T14:43:05.517Z,21.8
2017-04-15T14:44:14.856Z,21.88
2017-04-15T14:45:24.214Z,21.89
2017-04-15T14:46:32.915Z,21.72
2017-04-15T14:47:41.960Z,21.8
2017-04-15T14:48:51.004Z,21.79
2017-04-15T14:50:00.062Z,21.83
2017-04-15T14:51:09.141Z,21.8
2017-04-15T14:52:18.194Z,21.82
2017-04-15T14:53:27.554Z,21.83
2017-04-15T14:54:36.623Z,21.88